createdAt,value
2023-08-11T00:03:54.278Z,9.42
2023-08-11T00:07:57.085Z,9.41
2023-08-11T00:11:58.492Z,9.31
2023-08-11T00:15:59.936Z,9.30
2023-08-11T00:20:01.412Z,9.26
2023-08-11T00:24:04.435Z,9.24
2023-08-11T00:28:05.948Z,9.22
2023-08-11T00:32:07.353Z,9.14
2023-08-11T00:36:08.730Z,9.08
2023-08-11T00:40:12.229Z,9.09
2023-08-11T00:44:13.664Z,9.09
2023-08-11T00:48:15.560Z,9.01
2023-08-11T00:52:18.088Z,9.05
2023-08-11T00:56:22.681Z,8.97
2023-08-11T01:00:24.084Z,9.00
2023-08-11T01:04:25.521Z,9.00
2023-08-11T01:08:31.269Z,8.97
2023-08-11T01:12:37.005Z,8.91
2023-08-11T01:16:38.803Z,8.91
2023-08-11T01:20:40.531Z,8.88
2023-08-11T01:24:44.054Z,8.82
2023-08-11T01:28:45.608Z,8.80
2023-08-11T01:32:47.025Z,8.76
2023-08-11T01:36:50.970Z,8.72
2023-08-11T01:40:53.721Z,8.65
2023-08-11T01:44:55.288Z,8.63
2023-08-11T01:48:57.356Z,8.55
2023-08-11T01:52:58.793Z,8.58
2023-08-11T01:57:01.775Z,8.55
2023-08-11T02:01:03.205Z,8.54
2023-08-11T02:05:04.985Z,8.49
2023-08-11T02:09:06.430Z,8.47
2023-08-11T02:13:09.172Z,8.43
2023-08-11T02:17:10.667Z,8.40
2023-08-11T02:21:12.097Z,8.40
2023-08-11T02:25:13.657Z,8.35
2023-08-11T02:29:16.403Z,8.33
2023-08-11T02:33:17.807Z,8.29
2023-08-11T02:37:19.233Z,8.22
2023-08-11T02:41:20.604Z,8.25
2023-08-11T02:45:23.542Z,8.23
2023-08-11T02:49:24.973Z,8.24
2023-08-11T02:53:26.633Z,8.20
2023-08-11T02:57:28.016Z,8.21
2023-08-11T03:01:30.796Z,8.20
2023-08-11T03:05:32.239Z,8.17
2023-08-11T03:09:33.616Z,8.13
2023-08-11T03:13:35.058Z,8.13
2023-08-11T03:17:37.889Z,8.08
2023-08-11T03:21:39.347Z,8.06
2023-08-11T03:25:40.741Z,8.03
2023-08-11T03:29:42.163Z,8.01
2023-08-11T03:33:44.909Z,8.02
2023-08-11T03:37:46.324Z,8.02
2023-08-11T03:41:47.702Z,8.02
2023-08-11T03:45:50.786Z,7.97
2023-08-11T03:49:53.524Z,7.97
2023-08-11T03:53:54.906Z,7.94
2023-08-11T03:57:56.483Z,7.89
2023-08-11T04:01:57.881Z,7.92
2023-08-11T04:06:01.009Z,7.92
2023-08-11T04:10:02.403Z,7.95
2023-08-11T04:14:04.003Z,7.89
2023-08-11T04:18:05.695Z,7.91
2023-08-11T04:22:08.705Z,7.87
2023-08-11T04:26:10.296Z,7.87
2023-08-11T04:30:12.331Z,7.91
2023-08-11T04:34:13.716Z,7.96
2023-08-11T04:38:16.447Z,8.00
2023-08-11T04:42:17.943Z,8.02
2023-08-11T04:46:19.367Z,8.02
2023-08-11T04:50:20.824Z,8.29
2023-08-11T04:54:23.593Z,8.48
2023-08-11T04:58:25.023Z,8.56
2023-08-11T05:02:26.431Z,8.76
2023-08-11T05:06:27.824Z,8.63
2023-08-11T05:10:30.590Z,8.54
2023-08-11T05:14:32.082Z,8.57
2023-08-11T05:18:42.987Z,8.73
2023-08-11T05:22:45.537Z,9.17
2023-08-11T05:26:48.269Z,9.61
2023-08-11T05:30:49.661Z,9.42
2023-08-11T05:34:51.107Z,9.71
2023-08-11T05:38:52.522Z,10.63
2023-08-11T05:42:55.380Z,11.18
2023-08-11T05:46:56.784Z,12.25
2023-08-11T05:50:58.161Z,15.06
2023-08-11T05:54:59.568Z,15.88
2023-08-11T05:59:02.313Z,17.43
2023-08-11T06:03:04.096Z,19.45
2023-08-11T06:07:05.535Z,20.74
2023-08-11T06:11:06.968Z,21.08
2023-08-11T06:15:09.961Z,22.18
2023-08-11T06:19:11.407Z,22.80
2023-08-11T06:23:12.804Z,23.03
2023-08-11T06:27:14.267Z,23.04
2023-08-11T06:31:18.515Z,22.06
2023-08-11T06:35:20.030Z,22.85
2023-08-11T06:39:21.424Z,22.37
2023-08-11T06:43:22.849Z,22.29
2023-08-11T06:47:25.638Z,22.46
2023-08-11T06:51:27.037Z,23.41
2023-08-11T06:55:28.431Z,23.11
2023-08-11T06:59:29.827Z,25.10
2023-08-11T07:03:32.582Z,25.77
2023-08-11T07:07:33.978Z,25.30
2023-08-11T07:11:35.370Z,25.66
2023-08-11T07:15:39.325Z,24.00
2023-08-11T07:19:42.087Z,25.23
2023-08-11T07:23:43.460Z,25.61
2023-08-11T07:27:44.852Z,25.70
2023-08-11T07:31:46.402Z,25.29
2023-08-11T07:35:49.134Z,25.48
2023-08-11T07:39:50.537Z,25.82
2023-08-11T07:43:51.926Z,26.16
2023-08-11T07:47:53.417Z,26.26
2023-08-11T07:51:56.197Z,25.17
2023-08-11T07:55:57.583Z,25.24
2023-08-11T07:59:58.984Z,25.31
2023-08-11T08:04:00.501Z,27.35
2023-08-11T08:08:03.415Z,24.21
2023-08-11T08:12:04.836Z,27.04
2023-08-11T08:16:06.325Z,27.58
2023-08-11T08:20:08.380Z,29.66
2023-08-11T08:24:12.256Z,28.54
2023-08-11T08:28:13.642Z,28.14
2023-08-11T08:32:15.049Z,29.32
2023-08-11T08:36:16.431Z,27.93
2023-08-11T08:40:19.376Z,29.78
2023-08-11T08:44:20.834Z,29.17
2023-08-11T08:48:26.475Z,31.08
2023-08-11T08:52:28.235Z,27.78
2023-08-11T08:56:31.067Z,28.28
2023-08-11T09:00:32.661Z,28.40
2023-08-11T09:04:34.483Z,27.63
2023-08-11T09:08:38.932Z,27.10
2023-08-11T09:12:41.694Z,27.00
2023-08-11T09:16:43.154Z,26.28
2023-08-11T09:20:46.461Z,25.56
2023-08-11T09:24:47.855Z,25.27
2023-08-11T09:28:51.424Z,25.08
2023-08-11T09:32:53.055Z,23.76
2023-08-11T09:36:54.815Z,24.18
2023-08-11T09:41:00.040Z,24.67
2023-08-11T09:45:02.865Z,23.92
2023-08-11T09:49:04.501Z,23.41
2023-08-11T09:53:06.383Z,23.31
2023-08-11T09:57:08.272Z,23.24
2023-08-11T10:01:20.278Z,23.39
2023-08-11T10:05:23.514Z,23.61
2023-08-11T10:09:26.445Z,24.28
2023-08-11T10:13:28.441Z,23.74
2023-08-11T10:17:31.692Z,23.23
2023-08-11T10:21:33.179Z,23.41
2023-08-11T10:25:35.163Z,23.50
2023-08-11T10:29:36.886Z,23.58
2023-08-11T10:33:39.631Z,24.39
2023-08-11T10:37:41.029Z,24.06
2023-08-11T10:41:45.162Z,23.64
2023-08-11T10:45:46.604Z,23.74
2023-08-11T10:49:49.400Z,23.49
2023-08-11T10:53:50.873Z,23.90
2023-08-11T10:58:07.151Z,24.40
2023-08-11T11:02:08.777Z,23.88
2023-08-11T11:06:11.950Z,24.15
2023-08-11T11:10:13.389Z,24.06
2023-08-11T11:14:15.121Z,23.90
2023-08-11T11:18:16.567Z,23.78
2023-08-11T11:22:19.337Z,23.74
2023-08-11T11:26:24.543Z,23.87
2023-08-11T11:30:26.046Z,23.72
2023-08-11T11:34:27.494Z,23.67
2023-08-11T11:38:30.470Z,23.99
2023-08-11T11:42:32.063Z,24.06
2023-08-11T11:46:33.857Z,24.32
2023-08-11T11:50:35.328Z,24.24
2023-08-11T11:54:38.103Z,23.90
2023-08-11T11:58:39.614Z,24.10
2023-08-11T12:02:41.038Z,24.42
2023-08-11T12:06:43.169Z,24.52
2023-08-11T12:10:47.309Z,24.83
2023-08-11T12:14:49.825Z,24.96
2023-08-11T12:18:51.218Z,24.95
2023-08-11T12:22:52.632Z,24.98
2023-08-11T12:26:55.382Z,24.77
2023-08-11T12:30:57.361Z,24.93
2023-08-11T12:34:58.756Z,24.98
2023-08-11T12:39:00.195Z,25.00
2023-08-11T12:43:03.095Z,25.13
2023-08-11T12:47:04.766Z,25.27
2023-08-11T12:51:06.192Z,25.41
2023-08-11T12:55:08.633Z,25.43
2023-08-11T12:59:11.382Z,25.46
2023-08-11T13:03:12.841Z,25.73
2023-08-11T13:07:14.293Z,25.68
2023-08-11T13:11:15.700Z,25.72
2023-08-11T13:15:18.518Z,25.73
2023-08-11T13:19:19.901Z,25.92
2023-08-11T13:23:21.290Z,25.91
2023-08-11T13:27:22.699Z,25.90
2023-08-11T13:31:25.683Z,25.94
2023-08-11T13:35:27.152Z,25.78
2023-08-11T13:39:28.552Z,25.84
2023-08-11T13:43:29.988Z,26.20
2023-08-11T13:56:39.336Z,26.49
2023-08-11T14:00:40.953Z,26.12
2023-08-11T14:04:42.547Z,26.07
2023-08-11T14:08:44.217Z,26.40
2023-08-11T14:12:47.141Z,26.29
2023-08-11T14:16:48.729Z,26.30
2023-08-11T14:20:50.294Z,26.38
2023-08-11T14:24:54.689Z,26.45
2023-08-11T14:28:58.693Z,26.16
2023-08-11T14:33:00.692Z,26.76
2023-08-11T14:37:02.310Z,26.25
2023-08-11T14:41:03.869Z,26.40
2023-08-11T14:45:08.337Z,26.63
2023-08-11T14:49:09.961Z,26.64
2023-08-11T14:53:11.524Z,26.49
2023-08-11T14:57:13.122Z,26.50
2023-08-11T15:01:17.225Z,26.62
2023-08-11T15:05:19.000Z,26.29
2023-08-11T15:09:20.613Z,26.31
2023-08-11T15:13:22.200Z,26.52
2023-08-11T15:17:25.126Z,26.28
2023-08-11T15:21:26.662Z,26.37
2023-08-11T15:25:28.243Z,26.80
2023-08-11T15:29:29.858Z,26.79
2023-08-11T15:33:32.875Z,26.62
2023-08-11T15:37:34.515Z,26.13
2023-08-11T15:41:36.074Z,26.10
2023-08-11T15:45:37.666Z,26.18
2023-08-11T15:49:40.600Z,26.20
2023-08-11T15:53:42.155Z,25.92
2023-08-11T15:57:43.764Z,26.37
2023-08-11T16:01:55.878Z,26.55
2023-08-11T16:06:06.870Z,26.49
2023-08-11T16:10:09.236Z,26.09
2023-08-11T16:14:10.984Z,26.11
2023-08-11T16:18:12.552Z,26.05
2023-08-11T16:22:15.476Z,25.84
2023-08-11T16:26:17.225Z,26.01
2023-08-11T16:30:18.972Z,25.81
2023-08-11T16:34:23.086Z,25.75
2023-08-11T16:38:26.102Z,25.35
2023-08-11T16:42:27.761Z,25.42
2023-08-11T16:46:29.347Z,25.60
2023-08-11T16:50:30.929Z,25.56
2023-08-11T16:54:33.879Z,25.50
2023-08-11T16:58:35.836Z,25.31
2023-08-11T17:02:37.525Z,25.22
2023-08-11T17:06:39.122Z,25.06
2023-08-11T17:10:42.607Z,24.74
2023-08-11T17:14:44.175Z,24.54
2023-08-11T17:18:46.832Z,24.39
2023-08-11T17:22:49.330Z,23.70
2023-08-11T17:26:52.654Z,23.28
2023-08-11T17:30:54.253Z,22.78
2023-08-11T17:34:58.334Z,22.36
2023-08-11T17:39:00.275Z,21.85
2023-08-11T17:43:03.414Z,21.40
2023-08-11T17:47:08.764Z,21.22
2023-08-11T17:51:10.609Z,20.91
2023-08-11T17:55:12.180Z,20.79
2023-08-11T17:59:15.469Z,20.56
2023-08-11T18:03:17.008Z,20.47
2023-08-11T18:07:18.644Z,20.28
2023-08-11T18:11:20.229Z,20.21
2023-08-11T18:15:23.396Z,19.91
2023-08-11T18:19:25.004Z,19.82
2023-08-11T18:23:26.579Z,19.68
2023-08-11T18:27:30.417Z,19.67
2023-08-11T18:31:34.803Z,19.41
2023-08-11T18:35:36.282Z,19.13
2023-08-11T18:39:37.946Z,19.33
2023-08-11T18:43:39.548Z,18.98
2023-08-11T18:47:42.507Z,18.78
2023-08-11T18:51:44.110Z,18.77
2023-08-11T18:55:45.691Z,18.64
2023-08-11T18:59:47.282Z,18.68
2023-08-11T19:03:50.298Z,18.46
2023-08-11T19:07:51.912Z,18.42
2023-08-11T19:11:53.471Z,18.34
2023-08-11T19:15:55.055Z,18.20
2023-08-11T19:19:57.987Z,18.11
2023-08-11T19:23:59.382Z,18.07
2023-08-11T19:28:01.094Z,17.88
2023-08-11T19:32:02.761Z,17.83
2023-08-11T19:36:05.934Z,17.62
2023-08-11T19:40:08.577Z,17.52
2023-08-11T19:44:10.176Z,17.63
2023-08-11T19:48:11.796Z,17.35
2023-08-11T19:52:14.841Z,17.33
2023-08-11T19:56:16.416Z,17.31
2023-08-11T20:00:18.225Z,17.16
2023-08-11T20:04:19.936Z,17.15
2023-08-11T20:08:23.033Z,17.05
2023-08-11T20:12:24.683Z,16.96
2023-08-11T20:16:26.651Z,16.96
2023-08-11T20:20:28.424Z,16.86
2023-08-11T20:24:34.120Z,16.91
2023-08-11T20:28:35.668Z,16.77
2023-08-11T20:32:37.300Z,16.67
2023-08-11T20:36:38.870Z,16.61
2023-08-11T20:40:41.763Z,16.49
2023-08-11T20:44:43.309Z,16.42
2023-08-11T20:48:44.850Z,16.43
2023-08-11T20:52:46.418Z,16.31
2023-08-11T20:56:49.394Z,16.30
2023-08-11T21:00:51.003Z,16.28
2023-08-11T21:04:52.590Z,16.16
2023-08-11T21:08:54.125Z,16.06
2023-08-11T21:12:57.012Z,16.05
2023-08-11T21:17:01.236Z,16.02
2023-08-11T21:21:04.405Z,16.08
2023-08-11T21:25:06.201Z,16.01
2023-08-11T21:29:09.814Z,15.92
2023-08-11T21:33:11.407Z,15.78
2023-08-11T21:37:13.170Z,15.72
2023-08-11T21:41:14.890Z,15.66
2023-08-11T21:45:17.983Z,15.58
2023-08-11T21:49:19.450Z,15.56
2023-08-11T21:53:23.743Z,15.55
2023-08-11T21:57:25.764Z,15.42
2023-08-11T22:01:28.667Z,15.43
2023-08-11T22:05:31.880Z,15.48
2023-08-11T22:09:33.712Z,15.33
2023-08-11T22:13:35.284Z,15.29
2023-08-11T22:17:38.208Z,15.19
2023-08-11T22:21:39.770Z,15.20
2023-08-11T22:25:41.320Z,15.15
2023-08-11T22:29:42.891Z,15.15
2023-08-11T22:33:45.791Z,15.10
2023-08-11T22:37:47.374Z,14.99
2023-08-11T22:41:48.927Z,14.94
2023-08-11T22:45:50.494Z,14.91
2023-08-11T22:49:53.417Z,14.90
2023-08-11T22:53:54.946Z,14.91
2023-08-11T22:57:56.488Z,14.88
2023-08-11T23:01:58.069Z,14.80
2023-08-11T23:06:00.983Z,14.78
2023-08-11T23:10:02.609Z,14.74
2023-08-11T23:14:04.317Z,14.72
2023-08-11T23:18:05.878Z,14.69
2023-08-11T23:22:08.841Z,14.64
2023-08-11T23:26:10.428Z,14.58
2023-08-11T23:30:12.412Z,14.56
2023-08-11T23:34:13.986Z,14.59
2023-08-11T23:38:16.932Z,14.61
2023-08-11T23:42:18.510Z,14.62
2023-08-11T23:46:20.076Z,14.55
2023-08-11T23:50:21.724Z,14.54
2023-08-11T23:54:24.610Z,14.58
2023-08-11T23:58:26.199Z,14.51
